createdAt,value
2023-04-18T00:01:33.383Z,26.02
2023-04-18T00:04:00.417Z,23.00
2023-04-18T00:06:27.289Z,22.50
2023-04-18T00:08:55.139Z,26.05
2023-04-18T00:11:21.836Z,23.80
2023-04-18T00:13:48.512Z,23.70
2023-04-18T00:16:15.598Z,25.02
2023-04-18T00:18:42.361Z,18.92
2023-04-18T00:21:09.541Z,23.33
2023-04-18T00:23:36.303Z,18.67
2023-04-18T00:26:03.199Z,19.30
2023-04-18T00:28:29.904Z,21.02
2023-04-18T00:30:56.757Z,22.25
2023-04-18T00:33:23.626Z,21.20
2023-04-18T00:35:50.281Z,18.80
2023-04-18T00:38:16.976Z,22.50
2023-04-18T00:40:43.580Z,22.02
2023-04-18T00:43:13.385Z,19.83
2023-04-18T00:45:39.961Z,20.65
2023-04-18T00:48:06.943Z,19.90
2023-04-18T00:50:33.681Z,20.80
2023-04-18T00:53:00.564Z,20.83
2023-04-18T00:55:27.195Z,18.77
2023-04-18T00:57:54.047Z,20.77
2023-04-18T01:00:20.983Z,21.70
2023-04-18T01:02:50.031Z,16.58
2023-04-18T01:05:18.540Z,18.58
2023-04-18T01:07:45.556Z,19.10
2023-04-18T01:10:12.390Z,19.63
2023-04-18T01:12:39.395Z,20.25
2023-04-18T01:15:06.764Z,19.80
2023-04-18T01:17:36.612Z,17.33
2023-04-18T01:20:06.334Z,19.10
2023-04-18T01:22:33.603Z,18.77
2023-04-18T01:25:00.434Z,20.13
2023-04-18T01:27:27.273Z,21.55
2023-04-18T01:29:54.013Z,18.63
2023-04-18T01:32:21.030Z,20.42
2023-04-18T01:34:47.820Z,17.75
2023-04-18T01:37:14.559Z,15.10
2023-04-18T01:39:41.173Z,18.33
2023-04-18T01:42:07.877Z,20.17
2023-04-18T01:44:34.634Z,23.83
2023-04-18T01:47:01.434Z,15.65
2023-04-18T01:49:28.129Z,16.88
2023-04-18T01:51:54.944Z,22.98
2023-04-18T01:54:21.592Z,16.50
2023-04-18T01:56:48.244Z,18.65
2023-04-18T01:59:15.140Z,24.08
2023-04-18T02:01:41.823Z,21.42
2023-04-18T02:04:08.504Z,23.92
2023-04-18T02:06:35.185Z,23.70
2023-04-18T02:09:01.987Z,14.52
2023-04-18T02:11:28.610Z,17.73
2023-04-18T02:13:55.287Z,22.48
2023-04-18T02:16:21.928Z,18.90
2023-04-18T02:18:49.706Z,17.70
2023-04-18T02:21:17.556Z,20.50
2023-04-18T02:23:44.273Z,15.20
2023-04-18T02:26:10.968Z,16.13
2023-04-18T02:28:39.163Z,18.40
2023-04-18T02:31:06.505Z,22.23
2023-04-18T02:33:33.175Z,19.60
2023-04-18T02:35:59.864Z,29.70
2023-04-18T02:38:26.476Z,18.58
2023-04-18T02:40:53.173Z,22.50
2023-04-18T02:43:19.811Z,22.25
2023-04-18T02:45:46.517Z,22.45
2023-04-18T02:48:13.118Z,19.10
2023-04-18T02:50:39.776Z,22.88
2023-04-18T02:53:06.395Z,24.23
2023-04-18T02:55:33.287Z,24.92
2023-04-18T02:57:59.906Z,18.52
2023-04-18T03:00:27.054Z,21.17
2023-04-18T03:02:53.758Z,22.27
2023-04-18T03:05:21.167Z,22.52
2023-04-18T03:07:47.854Z,28.08
2023-04-18T03:10:14.590Z,22.48
2023-04-18T03:12:41.258Z,20.33
2023-04-18T03:15:08.201Z,23.98
2023-04-18T03:17:36.600Z,16.15
2023-04-18T03:20:03.486Z,25.92
2023-04-18T03:22:30.274Z,21.35
2023-04-18T03:24:56.857Z,29.08
2023-04-18T03:27:23.465Z,21.75
2023-04-18T03:29:50.311Z,27.70
2023-04-18T03:32:17.352Z,25.95
2023-04-18T03:34:44.106Z,19.13
2023-04-18T03:37:10.765Z,22.63
2023-04-18T03:39:37.382Z,19.95
2023-04-18T03:42:04.039Z,22.77
2023-04-18T03:44:30.710Z,19.90
2023-04-18T03:46:58.169Z,21.00
2023-04-18T03:49:24.884Z,22.83
2023-04-18T03:51:52.181Z,20.75
2023-04-18T03:54:18.893Z,29.70
2023-04-18T03:56:45.745Z,27.52
2023-04-18T03:59:12.451Z,26.25
2023-04-18T04:01:39.150Z,24.05
2023-04-18T04:04:06.142Z,25.92
2023-04-18T04:06:32.989Z,22.58
2023-04-18T04:08:59.719Z,21.60
2023-04-18T04:11:26.823Z,22.30
2023-04-18T04:13:53.549Z,24.50
2023-04-18T04:16:20.336Z,22.55
2023-04-18T04:18:47.028Z,20.42
2023-04-18T04:21:13.788Z,21.73
2023-04-18T04:23:42.404Z,19.40
2023-04-18T04:26:09.285Z,24.92
2023-04-18T04:28:36.157Z,20.38
2023-04-18T04:31:03.498Z,22.85
2023-04-18T04:33:33.315Z,14.75
2023-04-18T04:36:01.366Z,16.65
2023-04-18T04:38:31.106Z,21.73
2023-04-18T04:40:58.497Z,21.13
2023-04-18T04:43:26.083Z,22.08
2023-04-18T04:45:53.244Z,20.00
2023-04-18T04:48:21.988Z,17.40
2023-04-18T04:50:53.023Z,21.75
2023-04-18T04:53:19.643Z,22.23
2023-04-18T04:55:46.476Z,18.35
2023-04-18T04:58:13.143Z,21.85
2023-04-18T05:00:39.765Z,19.10
2023-04-18T05:03:08.403Z,20.23
2023-04-18T05:05:35.801Z,18.10
2023-04-18T05:08:02.663Z,20.00
2023-04-18T05:10:30.441Z,18.17
2023-04-18T05:12:57.098Z,23.63
2023-04-18T05:15:24.572Z,21.83
2023-04-18T05:17:51.441Z,16.60
2023-04-18T05:20:18.136Z,21.17
2023-04-18T05:22:44.822Z,20.58
2023-04-18T05:25:12.615Z,18.20
2023-04-18T05:27:39.861Z,16.13
2023-04-18T05:30:07.194Z,19.38
2023-04-18T05:32:33.838Z,18.27
2023-04-18T05:35:00.516Z,16.10
2023-04-18T05:37:27.173Z,20.80
2023-04-18T05:39:53.800Z,21.25
2023-04-18T05:42:20.425Z,16.40
2023-04-18T05:44:47.005Z,18.10
2023-04-18T05:47:13.611Z,17.83
2023-04-18T05:49:40.273Z,15.20
2023-04-18T05:52:06.915Z,19.00
2023-04-18T05:54:33.555Z,18.00
2023-04-18T05:57:01.299Z,16.20
2023-04-18T05:59:29.426Z,17.52
2023-04-18T06:01:56.548Z,15.93
2023-04-18T06:04:23.330Z,16.55
2023-04-18T06:06:53.117Z,14.93
2023-04-18T06:09:19.823Z,16.92
2023-04-18T06:11:46.579Z,16.67
2023-04-18T06:14:13.621Z,16.73
2023-04-18T06:16:42.816Z,16.77
2023-04-18T06:19:09.512Z,14.25
2023-04-18T06:21:36.184Z,14.82
2023-04-18T06:24:02.772Z,16.83
2023-04-18T06:26:32.065Z,14.63
2023-04-18T06:28:58.664Z,16.02
2023-04-18T06:31:25.442Z,14.13
2023-04-18T06:33:52.168Z,15.10
2023-04-18T06:36:19.244Z,11.38
2023-04-18T06:38:45.986Z,13.20
2023-04-18T06:41:14.467Z,12.40
2023-04-18T06:43:49.166Z,14.50
2023-04-18T06:46:29.902Z,13.02
2023-04-18T06:48:56.666Z,11.55
2023-04-18T06:51:23.242Z,12.77
2023-04-18T06:53:52.826Z,11.55
2023-04-18T06:56:20.918Z,13.23
2023-04-18T06:58:48.302Z,11.55
2023-04-18T07:01:15.070Z,11.02
2023-04-18T07:03:41.772Z,14.27
2023-04-18T07:06:10.606Z,15.70
2023-04-18T07:08:37.473Z,12.05
2023-04-18T07:11:04.214Z,13.40
2023-04-18T07:13:30.831Z,11.18
2023-04-18T07:15:57.552Z,11.05
2023-04-18T07:18:36.768Z,10.70
2023-04-18T07:21:07.503Z,10.32
2023-04-18T07:23:34.950Z,11.25
2023-04-18T07:26:02.842Z,11.02
2023-04-18T07:28:31.294Z,9.70
2023-04-18T07:30:58.089Z,9.05
2023-04-18T07:33:25.588Z,11.63
2023-04-18T07:35:53.099Z,11.50
2023-04-18T07:38:19.795Z,11.25
2023-04-18T07:40:46.437Z,10.35
2023-04-18T07:43:13.120Z,9.88
2023-04-18T07:45:39.773Z,12.88
2023-04-18T07:48:06.563Z,6.63
2023-04-18T07:50:33.157Z,8.48
2023-04-18T07:52:59.879Z,8.18
2023-04-18T07:55:26.627Z,9.25
2023-04-18T07:57:53.311Z,7.05
2023-04-18T08:00:20.260Z,7.78
2023-04-18T08:02:47.070Z,9.00
2023-04-18T08:05:13.859Z,8.80
2023-04-18T08:07:40.633Z,8.75
2023-04-18T08:10:07.894Z,7.25
2023-04-18T08:12:36.304Z,7.57
2023-04-18T08:15:03.861Z,9.00
2023-04-18T08:17:31.134Z,7.60
2023-04-18T08:19:57.776Z,6.93
2023-04-18T08:22:24.449Z,7.20
2023-04-18T08:25:03.789Z,6.20
2023-04-18T08:27:31.526Z,8.50
2023-04-18T08:29:58.273Z,6.93
2023-04-18T08:32:24.980Z,7.05
2023-04-18T08:34:51.739Z,10.85
2023-04-18T08:37:18.345Z,8.60
2023-04-18T08:39:45.131Z,12.07
2023-04-18T08:42:16.320Z,7.30
2023-04-18T08:44:43.101Z,6.88
2023-04-18T08:47:09.997Z,5.55
2023-04-18T08:49:36.602Z,6.95
2023-04-18T08:52:13.818Z,7.70
2023-04-18T08:54:45.342Z,7.28
2023-04-18T08:57:13.856Z,8.68
2023-04-18T08:59:43.109Z,6.75
2023-04-18T09:02:11.719Z,6.85
2023-04-18T09:04:46.151Z,8.13
2023-04-18T09:07:15.360Z,9.20
2023-04-18T09:09:42.754Z,7.43
2023-04-18T09:12:11.236Z,7.28
2023-04-18T09:14:40.278Z,8.98
2023-04-18T09:17:07.021Z,5.78
2023-04-18T09:19:33.976Z,8.70
2023-04-18T09:22:04.766Z,7.28
2023-04-18T09:24:32.550Z,10.07
2023-04-18T09:27:00.065Z,7.95
2023-04-18T09:29:46.735Z,8.65
2023-04-18T09:32:24.954Z,11.25
2023-04-18T09:34:58.103Z,8.32
2023-04-18T09:37:26.376Z,10.10
2023-04-18T09:39:53.302Z,10.15
2023-04-18T09:42:21.169Z,8.38
2023-04-18T09:45:07.848Z,8.50
2023-04-18T09:47:36.728Z,11.40
2023-04-18T09:50:11.295Z,13.60
2023-04-18T09:52:42.383Z,13.43
2023-04-18T09:55:11.785Z,8.88
2023-04-18T09:57:42.170Z,11.30
2023-04-18T10:00:23.576Z,10.43
2023-04-18T10:03:08.803Z,17.23
2023-04-18T10:05:37.481Z,11.52
2023-04-18T10:08:04.972Z,11.85
2023-04-18T10:10:32.632Z,10.88
2023-04-18T10:13:01.432Z,9.77
2023-04-18T10:15:29.631Z,9.75
2023-04-18T10:18:09.161Z,18.23
2023-04-18T10:20:36.353Z,16.00
2023-04-18T10:23:40.645Z,9.55
2023-04-18T10:26:10.986Z,10.02
2023-04-18T10:28:54.892Z,12.25
2023-04-18T10:31:23.810Z,10.82
2023-04-18T10:34:08.443Z,16.25
2023-04-18T10:36:36.124Z,14.07
2023-04-18T10:39:21.209Z,12.57
2023-04-18T10:41:51.646Z,11.18
2023-04-18T10:44:21.986Z,16.75
2023-04-18T10:46:48.618Z,10.90
2023-04-18T10:49:33.792Z,8.20
2023-04-18T10:52:02.115Z,19.05
2023-04-18T10:54:51.814Z,13.10
2023-04-18T10:57:18.504Z,11.00
2023-04-18T10:59:49.694Z,10.43
2023-04-18T11:02:30.382Z,13.38
2023-04-18T11:04:58.903Z,9.98
2023-04-18T11:07:47.385Z,15.20
2023-04-18T11:10:17.896Z,9.18
2023-04-18T11:12:44.847Z,19.23
2023-04-18T11:15:22.103Z,11.57
2023-04-18T11:18:15.324Z,15.63
2023-04-18T11:20:50.769Z,14.07
2023-04-18T11:23:24.841Z,11.35
2023-04-18T11:25:56.431Z,16.98
2023-04-18T11:28:25.016Z,14.65
2023-04-18T11:30:51.820Z,22.38
2023-04-18T11:33:18.441Z,18.08
2023-04-18T11:35:46.039Z,10.55
2023-04-18T11:38:14.465Z,18.42
2023-04-18T11:40:48.339Z,18.45
2023-04-18T11:43:21.523Z,15.77
2023-04-18T11:45:59.025Z,17.83
2023-04-18T11:48:42.619Z,18.05
2023-04-18T11:51:34.067Z,16.30
2023-04-18T11:54:00.745Z,11.50
2023-04-18T11:56:29.758Z,20.42
2023-04-18T11:58:56.555Z,15.85
2023-04-18T12:01:25.272Z,13.20
2023-04-18T12:04:06.600Z,12.73
2023-04-18T12:06:50.753Z,13.95
2023-04-18T12:09:18.286Z,13.38
2023-04-18T12:12:03.846Z,14.40
2023-04-18T12:14:30.656Z,15.75
2023-04-18T12:16:57.294Z,14.90
2023-04-18T12:19:28.326Z,13.10
2023-04-18T12:22:06.758Z,15.68
2023-04-18T12:24:33.910Z,14.32
2023-04-18T12:27:00.624Z,11.93
2023-04-18T12:29:28.636Z,12.90
2023-04-18T12:31:55.630Z,16.08
2023-04-18T12:34:22.286Z,16.50
2023-04-18T12:36:48.912Z,15.43
2023-04-18T12:39:15.500Z,13.98
2023-04-18T12:41:42.122Z,16.52
2023-04-18T12:44:09.359Z,11.68
2023-04-18T12:46:38.810Z,16.90
2023-04-18T12:49:05.689Z,14.57
2023-04-18T12:51:32.460Z,11.25
2023-04-18T12:53:59.226Z,14.88
2023-04-18T12:56:25.883Z,15.20
2023-04-18T12:58:52.522Z,12.32
2023-04-18T13:01:19.947Z,11.48
2023-04-18T13:03:53.422Z,14.93
2023-04-18T13:06:27.239Z,14.52
2023-04-18T13:08:53.898Z,13.63
2023-04-18T13:11:22.511Z,12.30
2023-04-18T13:13:49.218Z,12.95
2023-04-18T13:16:16.201Z,13.20
2023-04-18T13:18:44.715Z,13.07
2023-04-18T13:21:11.364Z,15.38
2023-04-18T13:23:38.020Z,12.38
2023-04-18T13:26:04.728Z,12.32
2023-04-18T13:28:31.417Z,11.38
2023-04-18T13:30:58.665Z,10.13
2023-04-18T13:33:25.360Z,12.65
2023-04-18T13:35:51.989Z,11.65
2023-04-18T13:38:18.659Z,11.10
2023-04-18T13:40:45.444Z,12.63
2023-04-18T13:43:13.145Z,11.73
2023-04-18T13:45:39.883Z,13.18
2023-04-18T13:48:06.899Z,8.50
2023-04-18T13:50:33.619Z,9.38
2023-04-18T13:53:00.176Z,13.00
2023-04-18T13:55:27.845Z,14.82
2023-04-18T13:57:54.901Z,10.13
2023-04-18T14:00:21.636Z,9.88
2023-04-18T14:02:48.356Z,11.80
2023-04-18T14:05:15.188Z,12.45
2023-04-18T14:07:41.991Z,12.45
2023-04-18T14:10:08.999Z,11.93
2023-04-18T14:12:35.691Z,12.40
2023-04-18T14:15:05.023Z,10.45
2023-04-18T14:17:31.630Z,11.05
2023-04-18T14:19:58.399Z,9.38
2023-04-18T14:22:25.013Z,9.48
2023-04-18T14:24:53.782Z,12.18
2023-04-18T14:27:20.761Z,9.10
2023-04-18T14:29:48.946Z,11.77
2023-04-18T14:32:15.709Z,8.55
2023-04-18T14:34:42.866Z,8.85
2023-04-18T14:37:09.663Z,8.02
2023-04-18T14:39:38.046Z,9.15
2023-04-18T14:42:04.917Z,9.82
2023-04-18T14:44:31.694Z,7.55
2023-04-18T14:46:58.409Z,8.13
2023-04-18T14:49:25.124Z,6.95
2023-04-18T14:51:51.702Z,8.65
2023-04-18T14:54:18.330Z,8.15
2023-04-18T14:56:44.910Z,9.38
2023-04-18T14:59:16.473Z,7.43
2023-04-18T15:01:43.682Z,6.57
2023-04-18T15:04:10.750Z,9.32
2023-04-18T15:06:37.804Z,5.80
2023-04-18T15:09:05.067Z,6.65
2023-04-18T15:11:31.685Z,8.48
2023-04-18T15:13:58.354Z,7.05
2023-04-18T15:16:25.274Z,7.18
2023-04-18T15:18:51.939Z,6.70
2023-04-18T15:21:18.568Z,9.48
2023-04-18T15:23:45.411Z,5.45
2023-04-18T15:26:12.068Z,8.50
2023-04-18T15:28:38.725Z,6.90
2023-04-18T15:31:06.052Z,5.78
2023-04-18T15:33:32.670Z,7.68
2023-04-18T15:35:59.259Z,5.32
2023-04-18T15:38:25.885Z,8.70
2023-04-18T15:40:52.765Z,7.38
2023-04-18T15:43:19.405Z,8.88
2023-04-18T15:45:46.948Z,6.25
2023-04-18T15:48:13.647Z,6.40
2023-04-18T15:50:42.205Z,6.32
2023-04-18T15:53:08.939Z,7.88
2023-04-18T15:55:35.859Z,7.07
2023-04-18T15:58:02.456Z,8.50
2023-04-18T16:00:29.058Z,6.53
2023-04-18T16:02:55.760Z,7.32
2023-04-18T16:05:22.677Z,7.22
2023-04-18T16:07:49.356Z,11.25
2023-04-18T16:10:16.016Z,11.30
2023-04-18T16:12:42.664Z,7.55
2023-04-18T16:15:10.299Z,8.98
2023-04-18T16:17:38.073Z,9.68
2023-04-18T16:20:06.482Z,6.47
2023-04-18T16:22:33.337Z,10.52
2023-04-18T16:25:00.207Z,9.10
2023-04-18T16:27:26.886Z,7.28
2023-04-18T16:29:53.843Z,9.95
2023-04-18T16:32:20.570Z,9.63
2023-04-18T16:34:47.269Z,8.35
2023-04-18T16:37:13.926Z,8.50
2023-04-18T16:39:40.525Z,8.95
2023-04-18T16:42:07.164Z,10.98
2023-04-18T16:44:33.923Z,10.18
2023-04-18T16:47:00.897Z,8.40
2023-04-18T16:49:27.665Z,9.80
2023-04-18T16:51:54.259Z,12.30
2023-04-18T16:54:20.927Z,11.77
2023-04-18T16:56:47.626Z,8.25
2023-04-18T16:59:14.344Z,11.27
2023-04-18T17:01:40.978Z,13.32
2023-04-18T17:04:07.692Z,8.60
2023-04-18T17:06:34.413Z,9.45
2023-04-18T17:09:01.362Z,11.55
2023-04-18T17:11:28.504Z,11.18
2023-04-18T17:13:55.114Z,11.32
2023-04-18T17:16:21.884Z,9.65
2023-04-18T17:18:48.580Z,13.82
2023-04-18T17:21:15.242Z,13.88
2023-04-18T17:23:42.625Z,13.43
2023-04-18T17:26:10.025Z,9.50
2023-04-18T17:28:37.064Z,13.18
2023-04-18T17:31:04.253Z,10.02
2023-04-18T17:33:31.580Z,11.95
2023-04-18T17:35:58.480Z,8.85
2023-04-18T17:38:25.237Z,11.82
2023-04-18T17:41:02.218Z,12.30
2023-04-18T17:43:28.961Z,9.95
2023-04-18T17:45:56.934Z,12.30
2023-04-18T17:48:23.682Z,13.32
2023-04-18T17:50:50.309Z,13.10
2023-04-18T17:53:18.059Z,13.27
2023-04-18T17:55:46.837Z,14.35
2023-04-18T17:58:15.144Z,11.63
2023-04-18T18:00:41.820Z,12.75
2023-04-18T18:03:13.612Z,15.27
2023-04-18T18:08:07.924Z,10.98
2023-04-18T18:10:34.609Z,14.50
2023-04-18T18:13:01.249Z,12.40
2023-04-18T18:15:28.516Z,11.88
2023-04-18T18:17:55.748Z,11.40
2023-04-18T18:20:22.622Z,11.88
2023-04-18T18:22:49.271Z,12.60
2023-04-18T18:25:15.922Z,13.38
2023-04-18T18:27:42.539Z,11.73
2023-04-18T18:30:09.383Z,12.82
2023-04-18T18:32:36.039Z,13.77
2023-04-18T18:35:02.689Z,11.75
2023-04-18T18:37:29.287Z,10.63
2023-04-18T18:39:59.910Z,10.05
2023-04-18T18:42:26.588Z,12.80
2023-04-18T18:44:53.215Z,15.05
2023-04-18T18:47:19.879Z,12.57
2023-04-18T18:49:47.373Z,8.52
2023-04-18T18:52:13.982Z,12.38
2023-04-18T18:54:40.570Z,14.57
2023-04-18T18:57:08.467Z,15.75
2023-04-18T18:59:35.145Z,15.30
2023-04-18T19:02:01.814Z,14.40
2023-04-18T19:04:28.579Z,13.02
2023-04-18T19:06:55.287Z,11.88
2023-04-18T19:09:21.864Z,14.68
2023-04-18T19:11:48.440Z,12.68
2023-04-18T19:14:15.173Z,14.57
2023-04-18T19:16:41.916Z,16.50
2023-04-18T19:19:08.572Z,17.05
2023-04-18T19:21:35.245Z,12.18
2023-04-18T19:24:01.819Z,14.57
2023-04-18T19:26:28.426Z,10.90
2023-04-18T19:28:55.011Z,9.98
2023-04-18T19:31:21.654Z,12.20
2023-04-18T19:33:48.282Z,10.70
2023-04-18T19:36:15.224Z,13.15
2023-04-18T19:38:41.879Z,15.05
2023-04-18T19:41:08.517Z,10.90
2023-04-18T19:43:35.094Z,16.38
2023-04-18T19:46:01.718Z,13.32
2023-04-18T19:48:28.328Z,12.70
2023-04-18T19:50:56.568Z,15.85
2023-04-18T19:53:23.800Z,11.57
2023-04-18T19:55:50.509Z,12.35
2023-04-18T19:58:39.590Z,16.00
2023-04-18T20:01:06.477Z,12.98
2023-04-18T20:03:34.272Z,13.38
2023-04-18T20:06:01.519Z,14.45
2023-04-18T20:08:28.460Z,16.20
2023-04-18T20:10:55.120Z,14.82
2023-04-18T20:13:21.778Z,16.45
2023-04-18T20:15:49.151Z,15.65
2023-04-18T20:18:15.984Z,11.57
2023-04-18T20:20:42.804Z,12.60
2023-04-18T20:23:09.432Z,13.63
2023-04-18T20:25:36.007Z,10.48
2023-04-18T20:28:03.083Z,9.88
2023-04-18T20:30:29.923Z,17.75
2023-04-18T20:32:56.568Z,11.85
2023-04-18T20:35:23.842Z,17.92
2023-04-18T20:37:50.427Z,14.85
2023-04-18T20:40:17.011Z,19.70
2023-04-18T20:42:43.677Z,14.63
2023-04-18T20:45:13.869Z,18.42
2023-04-18T20:47:43.753Z,12.05
2023-04-18T20:50:11.058Z,16.23
2023-04-18T20:52:37.691Z,12.55
2023-04-18T20:55:04.560Z,9.80
2023-04-18T20:57:31.226Z,13.20
2023-04-18T20:59:58.746Z,12.45
2023-04-18T21:02:26.439Z,15.43
2023-04-18T21:04:53.332Z,14.43
2023-04-18T21:07:20.118Z,10.70
2023-04-18T21:09:46.800Z,18.20
2023-04-18T21:12:13.480Z,16.00
2023-04-18T21:14:40.078Z,11.25
2023-04-18T21:17:06.734Z,16.98
2023-04-18T21:19:33.321Z,13.80
2023-04-18T21:21:59.992Z,12.48
2023-04-18T21:24:26.632Z,12.23
2023-04-18T21:26:53.340Z,14.60
2023-04-18T21:29:19.948Z,14.32
2023-04-18T21:31:48.933Z,15.55
2023-04-18T21:34:16.064Z,10.32
2023-04-18T21:36:42.837Z,10.88
2023-04-18T21:39:09.947Z,15.73
2023-04-18T21:41:36.620Z,12.43
2023-04-18T21:44:03.449Z,17.55
2023-04-18T21:46:30.086Z,16.27
2023-04-18T21:48:56.758Z,17.27
2023-04-18T21:51:23.368Z,13.43
2023-04-18T21:53:49.984Z,11.60
2023-04-18T21:56:17.160Z,16.65
2023-04-18T21:58:43.843Z,16.75
2023-04-18T22:01:10.555Z,10.57
2023-04-18T22:03:37.705Z,14.73
2023-04-18T22:06:04.634Z,16.70
2023-04-18T22:08:31.270Z,11.88
2023-04-18T22:10:59.068Z,12.02
2023-04-18T22:13:30.219Z,15.32
2023-04-18T22:15:58.375Z,15.80
2023-04-18T22:18:25.304Z,13.20
2023-04-18T22:20:53.772Z,11.05
2023-04-18T22:23:20.565Z,11.27
2023-04-18T22:25:47.135Z,11.95
2023-04-18T22:28:13.795Z,14.20
2023-04-18T22:30:40.491Z,17.10
2023-04-18T22:33:07.121Z,13.07
2023-04-18T22:35:33.689Z,13.32
2023-04-18T22:38:00.300Z,13.20
2023-04-18T22:40:27.082Z,16.27
2023-04-18T22:42:54.479Z,14.35
2023-04-18T22:45:21.181Z,10.85
2023-04-18T22:47:48.129Z,11.07
2023-04-18T22:50:15.316Z,16.40
2023-04-18T22:52:42.086Z,13.73
2023-04-18T22:55:09.345Z,18.02
2023-04-18T22:57:36.262Z,14.75
2023-04-18T23:00:05.116Z,12.80
2023-04-18T23:02:32.003Z,16.20
2023-04-18T23:04:59.831Z,14.80
2023-04-18T23:07:26.501Z,13.77
2023-04-18T23:09:53.172Z,17.77
2023-04-18T23:12:19.967Z,11.48
2023-04-18T23:14:46.572Z,11.25
2023-04-18T23:17:13.274Z,14.93
2023-04-18T23:19:40.168Z,14.52
2023-04-18T23:22:06.898Z,11.23
2023-04-18T23:24:33.594Z,10.02
2023-04-18T23:27:01.615Z,12.65
2023-04-18T23:29:28.249Z,12.90
2023-04-18T23:31:55.017Z,12.52
2023-04-18T23:34:21.826Z,13.63
2023-04-18T23:36:48.580Z,18.38
2023-04-18T23:39:15.237Z,14.50
2023-04-18T23:41:41.862Z,14.77
2023-04-18T23:44:08.501Z,11.00
2023-04-18T23:46:36.476Z,15.55
2023-04-18T23:49:03.791Z,14.98
2023-04-18T23:51:31.114Z,10.05
2023-04-18T23:53:57.734Z,10.82
2023-04-18T23:56:24.323Z,12.00
2023-04-18T23:58:50.965Z,14.00
